createdAt,value
2019-02-21T00:02:07.140Z,15.67
2019-02-21T00:04:34.821Z,15.17
2019-02-21T00:07:02.775Z,13.87
2019-02-21T00:09:30.583Z,12.53
2019-02-21T00:12:00.124Z,13.77
2019-02-21T00:14:28.064Z,13.80
2019-02-21T00:16:56.505Z,13.10
2019-02-21T00:19:24.258Z,17.20
2019-02-21T00:21:53.837Z,15.60
2019-02-21T00:24:23.573Z,15.80
2019-02-21T00:26:51.263Z,13.00
2019-02-21T00:29:18.904Z,14.50
2019-02-21T00:31:46.590Z,14.77
2019-02-21T00:34:16.129Z,14.20
2019-02-21T00:36:43.809Z,15.97
2019-02-21T00:39:11.472Z,15.50
2019-02-21T00:41:39.636Z,17.57
2019-02-21T00:44:09.202Z,14.50
2019-02-21T00:46:36.893Z,15.73
2019-02-21T00:49:04.557Z,15.37
2019-02-21T00:51:32.264Z,13.27
2019-02-21T00:54:01.813Z,16.23
2019-02-21T00:56:29.683Z,17.30
2019-02-21T00:58:57.346Z,14.37
2019-02-21T01:01:24.993Z,13.90
2019-02-21T01:03:52.728Z,15.67
2019-02-21T01:06:22.253Z,14.77
2019-02-21T01:08:50.035Z,12.17
2019-02-21T01:11:17.765Z,9.43
2019-02-21T01:13:45.436Z,7.63
2019-02-21T01:16:14.953Z,17.03
2019-02-21T01:18:42.729Z,19.47
2019-02-21T01:21:10.437Z,18.90
2019-02-21T01:23:38.091Z,18.10
2019-02-21T01:26:07.646Z,16.77
2019-02-21T01:28:35.301Z,17.73
2019-02-21T01:31:03.371Z,15.20
2019-02-21T01:33:31.174Z,14.90
2019-02-21T01:36:01.200Z,18.47
2019-02-21T01:38:28.827Z,17.93
2019-02-21T01:40:56.553Z,14.30
2019-02-21T01:43:26.201Z,14.27
2019-02-21T01:45:57.793Z,12.10
2019-02-21T01:48:25.821Z,13.73
2019-02-21T01:50:53.480Z,11.40
2019-02-21T01:53:21.139Z,12.53
2019-02-21T01:55:48.807Z,13.77
2019-02-21T01:58:18.552Z,13.13
2019-02-21T02:00:46.287Z,15.57
2019-02-21T02:03:14.044Z,17.60
2019-02-21T02:05:41.708Z,17.57
2019-02-21T02:08:11.309Z,19.23
2019-02-21T02:10:39.101Z,16.73
2019-02-21T02:13:06.809Z,15.50
2019-02-21T02:15:34.458Z,19.50
2019-02-21T02:18:04.056Z,19.93
2019-02-21T02:20:31.682Z,14.90
2019-02-21T02:22:59.440Z,14.23
2019-02-21T02:25:27.172Z,14.67
2019-02-21T02:27:56.733Z,13.63
2019-02-21T02:30:26.318Z,17.10
2019-02-21T02:32:53.948Z,16.13
2019-02-21T02:35:21.665Z,20.93
2019-02-21T02:37:51.188Z,15.83
2019-02-21T02:40:20.734Z,14.97
2019-02-21T02:42:48.748Z,16.60
2019-02-21T02:45:16.388Z,16.10
2019-02-21T02:47:44.046Z,15.37
2019-02-21T02:50:13.599Z,18.33
2019-02-21T02:52:42.248Z,16.43
2019-02-21T02:55:09.954Z,17.10
2019-02-21T02:57:38.085Z,18.93
2019-02-21T03:00:09.500Z,19.53
2019-02-21T03:02:37.293Z,16.50
2019-02-21T03:05:05.391Z,14.57
2019-02-21T03:07:33.140Z,14.57
2019-02-21T03:10:04.954Z,16.50
2019-02-21T03:12:32.694Z,16.53
2019-02-21T03:15:00.413Z,17.80
2019-02-21T03:17:28.119Z,15.77
2019-02-21T03:19:57.682Z,14.90
2019-02-21T03:22:25.470Z,17.77
2019-02-21T03:24:53.131Z,14.57
2019-02-21T03:27:20.801Z,17.23
2019-02-21T03:29:48.459Z,16.97
2019-02-21T03:32:18.029Z,16.90
2019-02-21T03:34:45.937Z,15.67
2019-02-21T03:37:13.609Z,17.50
2019-02-21T03:39:41.486Z,21.07
2019-02-21T03:42:11.100Z,17.57
2019-02-21T03:44:38.763Z,16.40
2019-02-21T03:47:06.561Z,15.97
2019-02-21T03:49:34.230Z,14.97
2019-02-21T03:52:04.906Z,16.70
2019-02-21T03:54:32.572Z,16.60
2019-02-21T03:57:00.269Z,16.97
2019-02-21T03:59:27.965Z,19.33
2019-02-21T04:02:05.399Z,19.53
2019-02-21T04:04:29.033Z,16.07
2019-02-21T04:06:56.757Z,16.83
2019-02-21T04:09:24.394Z,18.53
2019-02-21T04:11:52.181Z,17.40
2019-02-21T04:14:21.718Z,18.70
2019-02-21T04:16:49.415Z,20.23
2019-02-21T04:19:17.042Z,16.67
2019-02-21T04:21:44.736Z,17.53
2019-02-21T04:24:14.326Z,18.57
2019-02-21T04:26:41.968Z,17.80
2019-02-21T04:29:09.633Z,18.47
2019-02-21T04:31:37.293Z,18.87
2019-02-21T04:34:06.905Z,17.17
2019-02-21T04:36:34.587Z,19.90
2019-02-21T04:39:02.747Z,21.83
2019-02-21T04:41:32.349Z,20.73
2019-02-21T04:44:03.928Z,23.87
2019-02-21T04:46:31.993Z,19.37
2019-02-21T04:49:00.697Z,19.10
2019-02-21T04:51:28.408Z,23.63
2019-02-21T04:53:56.153Z,18.70
2019-02-21T04:56:25.711Z,18.23
2019-02-21T04:58:53.531Z,21.13
2019-02-21T05:01:21.185Z,21.23
2019-02-21T05:03:49.053Z,18.57
2019-02-21T05:06:18.609Z,21.90
2019-02-21T05:08:46.994Z,20.93
2019-02-21T05:11:14.736Z,25.07
2019-02-21T05:13:42.511Z,23.10
2019-02-21T05:16:12.109Z,21.53
2019-02-21T05:18:39.925Z,21.43
2019-02-21T05:21:07.575Z,23.63
2019-02-21T05:23:36.739Z,24.83
2019-02-21T05:26:07.704Z,23.83
2019-02-21T05:28:35.359Z,23.07
2019-02-21T05:31:07.238Z,25.63
2019-02-21T05:33:45.777Z,22.97
2019-02-21T05:36:50.304Z,21.37
2019-02-21T05:39:38.505Z,21.30
2019-02-21T05:42:26.656Z,21.87
2019-02-21T05:45:28.944Z,21.37
2019-02-21T05:48:22.841Z,22.43
2019-02-21T05:50:58.134Z,20.80
2019-02-21T05:53:31.161Z,23.97
2019-02-21T05:56:19.179Z,21.87
2019-02-21T05:59:06.465Z,21.43
2019-02-21T06:02:03.065Z,20.97
2019-02-21T06:04:56.051Z,23.20
2019-02-21T06:07:58.661Z,23.67
2019-02-21T06:10:52.610Z,20.23
2019-02-21T06:13:37.474Z,22.57
2019-02-21T06:16:25.166Z,23.30
2019-02-21T06:19:10.946Z,24.30
2019-02-21T06:21:53.774Z,20.67
2019-02-21T06:24:44.746Z,18.70
2019-02-21T06:27:34.749Z,22.70
2019-02-21T06:30:14.493Z,20.43
2019-02-21T06:32:42.141Z,23.13
2019-02-21T06:35:09.937Z,24.33
2019-02-21T06:37:37.936Z,26.33
2019-02-21T06:40:07.704Z,24.07
2019-02-21T06:42:35.406Z,28.10
2019-02-21T06:45:04.366Z,27.30
2019-02-21T06:47:32.025Z,25.50
2019-02-21T06:50:01.605Z,26.03
2019-02-21T06:52:29.322Z,24.67
2019-02-21T06:54:56.988Z,29.23
2019-02-21T06:57:25.104Z,25.70
2019-02-21T06:59:52.791Z,28.03
2019-02-21T07:02:22.367Z,26.13
2019-02-21T07:04:50.038Z,27.00
2019-02-21T07:07:17.789Z,27.40
2019-02-21T07:09:45.424Z,23.60
2019-02-21T07:12:15.069Z,29.87
2019-02-21T07:14:42.694Z,25.40
2019-02-21T07:17:10.350Z,24.30
2019-02-21T07:19:38.029Z,21.43
2019-02-21T07:22:07.741Z,26.20
2019-02-21T07:24:38.350Z,24.47
2019-02-21T07:27:05.446Z,26.33
2019-02-21T07:29:33.132Z,28.20
2019-02-21T07:32:02.980Z,29.17
2019-02-21T07:34:30.762Z,25.73
2019-02-21T07:36:58.412Z,27.43
2019-02-21T07:39:35.618Z,20.83
2019-02-21T07:41:55.860Z,25.50
2019-02-21T07:44:25.481Z,24.70
2019-02-21T07:46:53.491Z,25.57
2019-02-21T07:49:21.439Z,28.80
2019-02-21T07:51:49.081Z,23.40
2019-02-21T07:54:18.628Z,22.70
2019-02-21T07:56:46.319Z,27.00
2019-02-21T07:59:14.028Z,26.83
2019-02-21T08:01:41.661Z,22.63
2019-02-21T08:04:11.274Z,23.60
2019-02-21T08:06:39.004Z,23.73
2019-02-21T08:09:07.855Z,24.70
2019-02-21T08:11:35.498Z,21.90
2019-02-21T08:14:05.060Z,23.23
2019-02-21T08:16:33.381Z,23.00
2019-02-21T08:19:01.405Z,23.93
2019-02-21T08:21:29.091Z,22.90
2019-02-21T08:23:59.149Z,23.60
2019-02-21T08:26:28.261Z,26.03
2019-02-21T08:28:55.940Z,23.53
2019-02-21T08:31:23.605Z,25.17
2019-02-21T08:34:04.410Z,23.20
2019-02-21T08:36:32.430Z,20.03
2019-02-21T08:39:00.086Z,20.20
2019-02-21T08:41:28.157Z,21.63
2019-02-21T08:43:57.451Z,20.23
2019-02-21T08:46:27.168Z,18.20
2019-02-21T08:48:54.899Z,21.13
2019-02-21T08:51:22.511Z,19.67
2019-02-21T08:53:50.135Z,18.70
2019-02-21T08:56:19.686Z,19.77
2019-02-21T08:58:48.449Z,22.47
2019-02-21T09:01:16.154Z,21.47
2019-02-21T09:03:43.813Z,19.83
2019-02-21T09:06:13.513Z,23.20
2019-02-21T09:08:41.145Z,20.80
2019-02-21T09:11:08.837Z,22.80
2019-02-21T09:13:36.556Z,22.77
2019-02-21T09:16:06.120Z,22.47
2019-02-21T09:18:33.780Z,21.13
2019-02-21T09:21:02.294Z,22.87
2019-02-21T09:23:30.034Z,20.57
2019-02-21T09:26:01.102Z,22.77
2019-02-21T09:28:29.897Z,22.37
2019-02-21T09:30:57.529Z,21.77
2019-02-21T09:33:25.216Z,25.87
2019-02-21T09:35:52.951Z,27.67
2019-02-21T09:38:22.543Z,21.87
2019-02-21T09:40:50.211Z,22.40
2019-02-21T09:43:17.908Z,26.93
2019-02-21T09:45:45.575Z,24.60
2019-02-21T09:48:15.154Z,26.47
2019-02-21T09:50:43.916Z,22.70
2019-02-21T09:53:11.654Z,26.77
2019-02-21T09:55:39.348Z,23.13
2019-02-21T09:58:08.939Z,20.73
2019-02-21T10:00:36.609Z,23.03
2019-02-21T10:03:04.311Z,21.87
2019-02-21T10:05:31.997Z,24.37
2019-02-21T10:08:01.802Z,21.10
2019-02-21T10:10:30.033Z,23.00
2019-02-21T10:12:57.889Z,22.53
2019-02-21T10:15:25.597Z,24.20
2019-02-21T10:17:53.221Z,21.03
2019-02-21T10:20:22.885Z,24.03
2019-02-21T10:22:50.640Z,21.23
2019-02-21T10:25:22.946Z,22.83
2019-02-21T10:27:49.921Z,22.37
2019-02-21T10:30:20.034Z,22.37
2019-02-21T10:32:47.713Z,23.73
2019-02-21T10:35:15.342Z,24.47
2019-02-21T10:37:43.156Z,20.03
2019-02-21T10:40:13.115Z,27.40
2019-02-21T10:42:40.858Z,21.07
2019-02-21T10:45:11.031Z,25.30
2019-02-21T10:47:39.709Z,23.83
2019-02-21T10:50:13.973Z,26.70
2019-02-21T10:52:41.887Z,25.77
2019-02-21T10:55:09.937Z,26.27
2019-02-21T10:57:37.736Z,27.10
2019-02-21T11:00:13.097Z,24.57
2019-02-21T11:02:42.107Z,23.87
2019-02-21T11:05:09.908Z,33.70
2019-02-21T11:07:37.548Z,27.50
2019-02-21T11:10:07.652Z,24.03
2019-02-21T11:12:36.121Z,23.50
2019-02-21T11:15:06.477Z,22.97
2019-02-21T11:17:34.377Z,21.37
2019-02-21T11:20:04.929Z,24.13
2019-02-21T11:22:32.615Z,24.77
2019-02-21T11:25:00.733Z,26.07
2019-02-21T11:27:28.384Z,23.00
2019-02-21T11:29:56.045Z,24.03
2019-02-21T11:32:25.642Z,25.67
2019-02-21T11:34:53.399Z,22.90
2019-02-21T11:37:21.094Z,20.03
2019-02-21T11:39:48.756Z,21.10
2019-02-21T11:42:18.354Z,22.53
2019-02-21T11:44:45.977Z,23.57
2019-02-21T11:47:13.649Z,22.63
2019-02-21T11:49:41.349Z,23.33
2019-02-21T11:52:10.916Z,24.03
2019-02-21T11:54:38.585Z,23.77
2019-02-21T11:57:06.453Z,23.37
2019-02-21T11:59:34.117Z,18.63
2019-02-21T12:02:03.707Z,23.23
2019-02-21T12:04:31.344Z,20.83
2019-02-21T12:06:59.001Z,22.07
2019-02-21T12:09:26.706Z,23.33
2019-02-21T12:11:54.665Z,20.43
2019-02-21T12:14:24.272Z,22.03
2019-02-21T12:16:52.035Z,23.07
2019-02-21T12:19:19.736Z,20.83
2019-02-21T12:21:58.415Z,21.23
2019-02-21T12:24:20.081Z,18.63
2019-02-21T12:26:48.756Z,23.43
2019-02-21T12:29:16.377Z,21.63
2019-02-21T12:31:44.109Z,21.77
2019-02-21T12:34:13.641Z,24.73
2019-02-21T12:36:41.318Z,20.63
2019-02-21T12:39:08.967Z,25.07
2019-02-21T12:41:37.929Z,20.93
2019-02-21T12:44:07.590Z,21.90
2019-02-21T12:46:35.411Z,24.10
2019-02-21T12:49:03.218Z,21.17
2019-02-21T12:51:31.073Z,21.43
2019-02-21T12:53:58.686Z,19.27
2019-02-21T12:56:28.287Z,19.70
2019-02-21T12:58:55.976Z,15.93
2019-02-21T13:01:23.669Z,17.97
2019-02-21T13:03:51.368Z,19.33
2019-02-21T13:06:20.958Z,15.90
2019-02-21T13:08:48.636Z,18.33
2019-02-21T13:11:16.303Z,17.37
2019-02-21T13:13:43.970Z,17.90
2019-02-21T13:16:13.521Z,18.17
2019-02-21T13:18:41.249Z,18.93
2019-02-21T13:21:08.896Z,19.13
2019-02-21T13:23:36.662Z,20.90
2019-02-21T13:26:06.225Z,13.90
2019-02-21T13:28:34.910Z,19.67
2019-02-21T13:31:02.633Z,19.07
2019-02-21T13:33:30.289Z,16.37
2019-02-21T13:35:57.978Z,18.13
2019-02-21T13:38:27.825Z,20.33
2019-02-21T13:40:55.529Z,15.07
2019-02-21T13:43:23.282Z,17.97
2019-02-21T13:45:50.962Z,14.53
2019-02-21T13:48:20.519Z,16.50
2019-02-21T13:50:48.203Z,17.87
2019-02-21T13:53:15.844Z,14.77
2019-02-21T13:55:43.543Z,17.03
2019-02-21T13:58:13.097Z,15.63
2019-02-21T14:00:40.775Z,16.00
2019-02-21T14:03:08.514Z,15.40
2019-02-21T14:05:36.257Z,17.07
2019-02-21T14:08:05.797Z,14.33
2019-02-21T14:10:35.137Z,15.73
2019-02-21T14:13:02.898Z,12.60
2019-02-21T14:15:30.538Z,16.10
2019-02-21T14:17:58.331Z,18.10
2019-02-21T14:20:27.853Z,18.03
2019-02-21T14:22:55.594Z,19.30
2019-02-21T14:25:23.441Z,17.70
2019-02-21T14:27:51.109Z,16.80
2019-02-21T14:30:20.670Z,18.20
2019-02-21T14:32:48.469Z,15.43
2019-02-21T14:35:16.147Z,18.37
2019-02-21T14:37:43.940Z,18.70
2019-02-21T14:40:13.735Z,13.77
2019-02-21T14:42:41.534Z,12.70
2019-02-21T14:45:12.456Z,15.40
2019-02-21T14:47:40.500Z,11.67
2019-02-21T14:50:10.213Z,16.70
2019-02-21T14:52:37.907Z,15.00
2019-02-21T14:55:06.560Z,14.53
2019-02-21T14:57:40.889Z,12.20
2019-02-21T15:00:09.138Z,16.43
2019-02-21T15:02:36.890Z,14.73
2019-02-21T15:05:04.553Z,15.80
2019-02-21T15:07:32.354Z,14.60
2019-02-21T15:09:59.978Z,13.63
2019-02-21T15:12:29.689Z,18.60
2019-02-21T15:14:57.344Z,16.97
2019-02-21T15:17:25.034Z,16.80
2019-02-21T15:19:52.843Z,13.93
2019-02-21T15:22:22.514Z,18.63
2019-02-21T15:24:50.334Z,15.03
2019-02-21T15:27:18.101Z,15.20
2019-02-21T15:29:45.875Z,13.40
2019-02-21T15:32:15.544Z,12.77
2019-02-21T15:34:43.182Z,14.27
2019-02-21T15:37:11.073Z,11.43
2019-02-21T15:39:38.726Z,15.03
2019-02-21T15:42:08.274Z,21.57
2019-02-21T15:44:36.146Z,13.20
2019-02-21T15:47:03.906Z,12.70
2019-02-21T15:49:31.655Z,14.43
2019-02-21T15:51:59.289Z,13.37
2019-02-21T15:54:28.854Z,15.57
2019-02-21T15:56:56.527Z,14.20
2019-02-21T15:59:24.258Z,14.07
2019-02-21T16:01:51.949Z,12.20
2019-02-21T16:04:21.571Z,12.53
2019-02-21T16:06:51.761Z,14.27
2019-02-21T16:09:18.955Z,14.27
2019-02-21T16:11:48.541Z,12.27
2019-02-21T16:14:19.135Z,12.87
2019-02-21T16:16:48.813Z,15.33
2019-02-21T16:19:18.449Z,13.93
2019-02-21T16:21:48.287Z,12.30
2019-02-21T16:24:18.001Z,13.20
2019-02-21T16:26:47.554Z,12.20
2019-02-21T16:29:18.205Z,12.40
2019-02-21T16:31:47.936Z,13.73
2019-02-21T16:34:17.633Z,15.03
2019-02-21T16:36:47.221Z,17.27
2019-02-21T16:39:17.850Z,15.47
2019-02-21T16:41:47.441Z,15.00
2019-02-21T16:44:17.040Z,22.17
2019-02-21T16:47:06.079Z,17.23
2019-02-21T16:49:38.597Z,17.53
2019-02-21T16:52:08.130Z,16.33
2019-02-21T16:54:37.718Z,14.33
2019-02-21T16:57:23.668Z,16.97
2019-02-21T16:59:51.535Z,20.37
2019-02-21T17:02:19.234Z,13.93
2019-02-21T17:04:47.051Z,17.50
2019-02-21T17:07:20.238Z,13.40
2019-02-21T17:09:47.075Z,14.87
2019-02-21T17:12:14.750Z,13.97
2019-02-21T17:14:42.541Z,16.30
2019-02-21T17:17:10.610Z,12.57
2019-02-21T17:19:38.377Z,13.93
2019-02-21T17:22:06.172Z,16.50
2019-02-21T17:24:33.832Z,13.97
2019-02-21T17:27:01.556Z,17.03
2019-02-21T17:29:29.307Z,15.70
2019-02-21T17:31:56.997Z,13.53
2019-02-21T17:34:24.707Z,16.13
2019-02-21T17:36:52.373Z,16.13
2019-02-21T17:39:20.264Z,16.70
2019-02-21T17:41:48.096Z,19.10
2019-02-21T17:44:15.777Z,16.83
2019-02-21T17:46:43.601Z,14.60
2019-02-21T17:49:11.307Z,21.67
2019-02-21T17:51:39.141Z,13.73
2019-02-21T17:54:06.848Z,14.63
2019-02-21T17:56:34.517Z,15.30
2019-02-21T17:59:02.464Z,14.97
2019-02-21T18:01:30.260Z,13.90
2019-02-21T18:03:58.047Z,13.77
2019-02-21T18:06:25.881Z,13.47
2019-02-21T18:08:55.135Z,12.93
2019-02-21T18:11:23.032Z,14.17
2019-02-21T18:13:50.770Z,13.33
2019-02-21T18:16:18.436Z,16.33
2019-02-21T18:18:46.127Z,12.93
2019-02-21T18:21:13.916Z,15.23
2019-02-21T18:23:41.645Z,13.60
2019-02-21T18:26:17.370Z,12.03
2019-02-21T18:28:45.149Z,15.27
2019-02-21T18:31:19.103Z,16.33
2019-02-21T18:33:46.813Z,15.13
2019-02-21T18:36:14.544Z,16.13
2019-02-21T18:38:43.241Z,14.23
2019-02-21T18:41:11.186Z,12.67
2019-02-21T18:43:38.909Z,15.60
2019-02-21T18:46:06.582Z,18.13
2019-02-21T18:48:34.549Z,18.20
2019-02-21T18:51:02.234Z,16.10
2019-02-21T18:53:29.937Z,14.53
2019-02-21T18:55:57.642Z,17.33
2019-02-21T18:58:25.354Z,17.20
2019-02-21T19:00:53.046Z,18.30
2019-02-21T19:03:20.751Z,14.17
2019-02-21T19:05:48.441Z,18.77
2019-02-21T19:08:16.125Z,14.03
2019-02-21T19:10:43.806Z,19.13
2019-02-21T19:13:11.535Z,15.20
2019-02-21T19:15:39.326Z,18.67
2019-02-21T19:18:10.071Z,21.37
2019-02-21T19:20:38.157Z,15.73
2019-02-21T19:23:05.917Z,15.63
2019-02-21T19:25:33.910Z,14.67
2019-02-21T19:28:01.593Z,17.80
2019-02-21T19:30:33.086Z,16.50
2019-02-21T19:33:00.790Z,14.27
2019-02-21T19:35:28.460Z,16.63
2019-02-21T19:38:09.788Z,16.50
2019-02-21T19:40:29.299Z,16.00
2019-02-21T19:42:57.099Z,16.00
2019-02-21T19:45:24.898Z,15.13
2019-02-21T19:47:52.917Z,16.00
2019-02-21T19:50:20.724Z,18.20
2019-02-21T19:52:48.435Z,12.53
2019-02-21T19:55:16.264Z,17.40
2019-02-21T19:57:43.924Z,16.13
2019-02-21T20:00:13.648Z,13.73
2019-02-21T20:02:41.619Z,20.50
2019-02-21T20:05:09.492Z,14.17
2019-02-21T20:07:37.322Z,24.93
2019-02-21T20:10:05.121Z,15.77
2019-02-21T20:12:32.833Z,17.30
2019-02-21T20:15:01.329Z,19.87
2019-02-21T20:17:31.031Z,16.70
2019-02-21T20:19:58.769Z,19.60
2019-02-21T20:22:26.533Z,20.93
2019-02-21T20:24:54.194Z,16.60
2019-02-21T20:27:22.849Z,16.73
2019-02-21T20:29:50.626Z,16.70
2019-02-21T20:32:18.291Z,15.83
2019-02-21T20:34:46.097Z,17.10
2019-02-21T20:37:13.756Z,20.57
2019-02-21T20:39:43.774Z,17.40
2019-02-21T20:42:11.431Z,18.87
2019-02-21T20:44:39.214Z,18.10
2019-02-21T20:47:06.946Z,20.23
2019-02-21T20:49:36.685Z,18.80
2019-02-21T20:52:04.433Z,18.23
2019-02-21T20:54:32.098Z,23.43
2019-02-21T20:56:59.802Z,20.77
2019-02-21T20:59:28.197Z,20.67
2019-02-21T21:01:55.893Z,16.53
2019-02-21T21:04:23.610Z,21.33
2019-02-21T21:06:51.322Z,18.90
2019-02-21T21:09:18.993Z,22.43
2019-02-21T21:11:46.850Z,18.40
2019-02-21T21:14:14.494Z,17.13
2019-02-21T21:16:42.210Z,19.00
2019-02-21T21:19:09.893Z,16.80
2019-02-21T21:21:37.689Z,19.57
2019-02-21T21:24:05.368Z,20.13
2019-02-21T21:26:33.366Z,18.23
2019-02-21T21:29:01.230Z,20.90
2019-02-21T21:31:30.804Z,19.77
2019-02-21T21:33:58.488Z,16.97
2019-02-21T21:36:26.158Z,21.97
2019-02-21T21:38:54.488Z,16.83
2019-02-21T21:41:22.342Z,17.10
2019-02-21T21:43:49.989Z,19.27
2019-02-21T21:46:17.668Z,20.97
2019-02-21T21:48:45.381Z,23.03
2019-02-21T21:51:13.135Z,17.30
2019-02-21T21:53:40.805Z,17.30
2019-02-21T21:56:08.492Z,18.03
2019-02-21T21:58:36.217Z,22.97
2019-02-21T22:01:03.883Z,18.97
2019-02-21T22:03:33.542Z,21.27
2019-02-21T22:06:01.250Z,22.90
2019-02-21T22:08:28.938Z,20.20
2019-02-21T22:10:56.618Z,21.93
2019-02-21T22:13:24.290Z,21.93
2019-02-21T22:15:51.964Z,21.17
2019-02-21T22:18:19.734Z,21.47
2019-02-21T22:20:47.398Z,21.80
2019-02-21T22:23:15.197Z,24.03
2019-02-21T22:25:42.851Z,23.57
2019-02-21T22:28:10.537Z,20.37
2019-02-21T22:30:38.189Z,23.37
2019-02-21T22:33:05.912Z,18.93
2019-02-21T22:35:33.574Z,23.57
2019-02-21T22:38:01.253Z,24.53
2019-02-21T22:40:28.915Z,22.00
2019-02-21T22:42:56.740Z,20.43
2019-02-21T22:45:24.387Z,21.00
2019-02-21T22:47:52.013Z,23.10
2019-02-21T22:50:19.735Z,19.20
2019-02-21T22:52:47.439Z,22.03
2019-02-21T22:55:15.161Z,22.80
2019-02-21T22:57:42.837Z,21.37
2019-02-21T23:00:41.692Z,21.10
2019-02-21T23:03:11.265Z,23.83
2019-02-21T23:06:19.245Z,20.63
2019-02-21T23:08:53.325Z,27.83
2019-02-21T23:11:21.386Z,21.07
2019-02-21T23:13:49.112Z,27.27
2019-02-21T23:16:16.813Z,25.63
2019-02-21T23:18:44.785Z,20.33
2019-02-21T23:21:12.509Z,25.00
2019-02-21T23:23:40.322Z,25.30
2019-02-21T23:26:08.343Z,26.20
2019-02-21T23:28:36.017Z,25.13
2019-02-21T23:31:03.685Z,22.90
2019-02-21T23:33:33.016Z,27.67
2019-02-21T23:36:00.778Z,22.97
2019-02-21T23:38:28.453Z,24.37
2019-02-21T23:40:56.127Z,29.10
2019-02-21T23:43:23.893Z,25.73
2019-02-21T23:45:51.677Z,23.10
2019-02-21T23:48:19.364Z,24.90
2019-02-21T23:50:47.029Z,30.90
2019-02-21T23:53:15.009Z,22.43
2019-02-21T23:55:42.711Z,28.17
2019-02-21T23:58:10.424Z,28.67
